Aviation Digital Data Service (ADDS)

Output produced by METARs form (1817 UTC 25 January 2015)
found at http://aviationweather.gov/adds/metars/
 
KGSO 251738Z 2518/2618 20008KT P6SM SCT250 
     FM260300 18006KT P6SM OVC100 
     FM260900 15005KT P6SM OVC025 
     FM261100 21006KT 5SM -SHRA OVC012 
     FM261500 33005KT P6SM OVC015